sensor_id;sensor_type;location;lat;lon;timestamp;temperature;humidity
1506;DHT22;744;51.436;7.356;2023-04-01T00:01:13;12.90;54.90
1506;DHT22;744;51.436;7.356;2023-04-01T00:03:44;12.90;54.90
1506;DHT22;744;51.436;7.356;2023-04-01T00:06:13;13.00;55.20
1506;DHT22;744;51.436;7.356;2023-04-01T00:08:41;13.00;55.20
1506;DHT22;744;51.436;7.356;2023-04-01T00:11:07;12.80;55.10
1506;DHT22;744;51.436;7.356;2023-04-01T00:13:34;12.80;55.10
1506;DHT22;744;51.436;7.356;2023-04-01T00:16:01;12.90;55.00
1506;DHT22;744;51.436;7.356;2023-04-01T00:18:35;12.80;54.90
1506;DHT22;744;51.436;7.356;2023-04-01T00:21:02;12.80;55.10
1506;DHT22;744;51.436;7.356;2023-04-01T00:23:28;12.80;55.10
1506;DHT22;744;51.436;7.356;2023-04-01T00:25:55;13.00;55.30
1506;DHT22;744;51.436;7.356;2023-04-01T00:28:22;12.80;55.10
1506;DHT22;744;51.436;7.356;2023-04-01T00:30:49;12.80;55.20
1506;DHT22;744;51.436;7.356;2023-04-01T00:33:16;13.00;55.50
1506;DHT22;744;51.436;7.356;2023-04-01T00:35:43;13.00;55.60
1506;DHT22;744;51.436;7.356;2023-04-01T00:38:11;13.20;55.80
1506;DHT22;744;51.436;7.356;2023-04-01T00:40:43;13.00;55.60
1506;DHT22;744;51.436;7.356;2023-04-01T00:43:16;13.00;55.60
1506;DHT22;744;51.436;7.356;2023-04-01T00:45:49;13.10;55.90
1506;DHT22;744;51.436;7.356;2023-04-01T00:48:19;13.00;55.90
1506;DHT22;744;51.436;7.356;2023-04-01T00:50:52;12.80;55.80
1506;DHT22;744;51.436;7.356;2023-04-01T00:53:21;12.80;55.80
1506;DHT22;744;51.436;7.356;2023-04-01T00:55:54;12.90;55.80
1506;DHT22;744;51.436;7.356;2023-04-01T00:58:23;12.70;55.80
1506;DHT22;744;51.436;7.356;2023-04-01T01:00:51;12.80;55.90
1506;DHT22;744;51.436;7.356;2023-04-01T01:03:18;12.90;55.90
1506;DHT22;744;51.436;7.356;2023-04-01T01:11:41;12.80;55.60
1506;DHT22;744;51.436;7.356;2023-04-01T01:16:49;12.80;55.90
1506;DHT22;744;51.436;7.356;2023-04-01T01:25:16;13.00;56.30
1506;DHT22;744;51.436;7.356;2023-04-01T01:27:54;12.90;56.10
1506;DHT22;744;51.436;7.356;2023-04-01T01:30:38;12.80;56.00
1506;DHT22;744;51.436;7.356;2023-04-01T01:35:59;12.80;56.30
1506;DHT22;744;51.436;7.356;2023-04-01T01:38:31;12.70;56.40
1506;DHT22;744;51.436;7.356;2023-04-01T01:41:01;12.60;56.30
1506;DHT22;744;51.436;7.356;2023-04-01T01:43:33;12.70;56.50
1506;DHT22;744;51.436;7.356;2023-04-01T01:46:07;12.80;56.70
1506;DHT22;744;51.436;7.356;2023-04-01T01:48:36;12.60;56.60
1506;DHT22;744;51.436;7.356;2023-04-01T01:51:05;12.60;56.60
1506;DHT22;744;51.436;7.356;2023-04-01T01:53:32;12.70;56.50
1506;DHT22;744;51.436;7.356;2023-04-01T01:55:59;12.60;56.90
1506;DHT22;744;51.436;7.356;2023-04-01T01:58:32;12.60;56.30
1506;DHT22;744;51.436;7.356;2023-04-01T02:01:04;12.50;56.20
1506;DHT22;744;51.436;7.356;2023-04-01T02:03:35;12.70;56.70
1506;DHT22;744;51.436;7.356;2023-04-01T02:06:07;12.80;57.00
1506;DHT22;744;51.436;7.356;2023-04-01T02:11:11;12.70;56.70
1506;DHT22;744;51.436;7.356;2023-04-01T02:13:51;12.80;56.60
1506;DHT22;744;51.436;7.356;2023-04-01T02:16:28;13.00;56.50
1506;DHT22;744;51.436;7.356;2023-04-01T02:18:59;12.70;56.20
1506;DHT22;744;51.436;7.356;2023-04-01T02:21:30;12.70;56.60
1506;DHT22;744;51.436;7.356;2023-04-01T02:24:00;12.80;56.90
1506;DHT22;744;51.436;7.356;2023-04-01T02:26:28;12.60;56.70
1506;DHT22;744;51.436;7.356;2023-04-01T02:28:55;12.50;56.40
1506;DHT22;744;51.436;7.356;2023-04-01T02:31:23;12.50;56.30
1506;DHT22;744;51.436;7.356;2023-04-01T02:33:51;12.50;56.40
1506;DHT22;744;51.436;7.356;2023-04-01T02:36:18;12.90;56.60
1506;DHT22;744;51.436;7.356;2023-04-01T02:38:46;12.50;56.40
1506;DHT22;744;51.436;7.356;2023-04-01T02:41:15;12.50;56.50
1506;DHT22;744;51.436;7.356;2023-04-01T02:43:41;12.60;56.40
1506;DHT22;744;51.436;7.356;2023-04-01T02:46:08;13.00;56.60
1506;DHT22;744;51.436;7.356;2023-04-01T02:48:35;12.60;56.20
1506;DHT22;744;51.436;7.356;2023-04-01T02:51:02;12.60;56.30
1506;DHT22;744;51.436;7.356;2023-04-01T02:53:29;12.50;56.30
1506;DHT22;744;51.436;7.356;2023-04-01T02:55:55;12.30;56.70
1506;DHT22;744;51.436;7.356;2023-04-01T02:58:22;12.40;57.10
1506;DHT22;744;51.436;7.356;2023-04-01T03:00:49;12.80;56.50
1506;DHT22;744;51.436;7.356;2023-04-01T03:03:16;12.40;56.20
1506;DHT22;744;51.436;7.356;2023-04-01T03:05:43;12.70;56.30
1506;DHT22;744;51.436;7.356;2023-04-01T03:08:09;12.60;56.20
1506;DHT22;744;51.436;7.356;2023-04-01T03:10:36;12.70;56.80
1506;DHT22;744;51.436;7.356;2023-04-01T03:13:03;12.90;57.10
1506;DHT22;744;51.436;7.356;2023-04-01T03:15:30;12.80;56.40
1506;DHT22;744;51.436;7.356;2023-04-01T03:17:57;12.60;56.40
1506;DHT22;744;51.436;7.356;2023-04-01T03:20:24;12.60;56.30
1506;DHT22;744;51.436;7.356;2023-04-01T03:22:51;12.60;56.60
1506;DHT22;744;51.436;7.356;2023-04-01T03:25:18;12.70;56.80
1506;DHT22;744;51.436;7.356;2023-04-01T03:27:45;12.40;56.50
1506;DHT22;744;51.436;7.356;2023-04-01T03:30:12;12.40;56.60
1506;DHT22;744;51.436;7.356;2023-04-01T03:32:38;12.30;56.50
1506;DHT22;744;51.436;7.356;2023-04-01T03:35:05;12.60;56.90
1506;DHT22;744;51.436;7.356;2023-04-01T03:37:32;12.50;56.70
1506;DHT22;744;51.436;7.356;2023-04-01T03:39:59;12.40;56.90
1506;DHT22;744;51.436;7.356;2023-04-01T03:42:26;12.70;57.20
1506;DHT22;744;51.436;7.356;2023-04-01T03:44:53;12.50;56.80
1506;DHT22;744;51.436;7.356;2023-04-01T03:47:20;12.50;56.70
1506;DHT22;744;51.436;7.356;2023-04-01T03:49:46;12.40;56.80
1506;DHT22;744;51.436;7.356;2023-04-01T03:52:13;12.40;56.80
1506;DHT22;744;51.436;7.356;2023-04-01T03:54:40;12.50;57.10
1506;DHT22;744;51.436;7.356;2023-04-01T03:57:06;12.60;57.00
1506;DHT22;744;51.436;7.356;2023-04-01T03:59:34;12.40;56.70
1506;DHT22;744;51.436;7.356;2023-04-01T04:02:00;12.70;57.20
1506;DHT22;744;51.436;7.356;2023-04-01T04:04:27;12.50;56.70
1506;DHT22;744;51.436;7.356;2023-04-01T04:06:54;12.60;56.90
1506;DHT22;744;51.436;7.356;2023-04-01T04:09:21;12.60;56.70
1506;DHT22;744;51.436;7.356;2023-04-01T04:11:48;12.60;56.70
1506;DHT22;744;51.436;7.356;2023-04-01T04:14:16;12.50;56.70
1506;DHT22;744;51.436;7.356;2023-04-01T04:16:42;12.60;56.80
1506;DHT22;744;51.436;7.356;2023-04-01T04:19:09;12.70;56.90
1506;DHT22;744;51.436;7.356;2023-04-01T04:21:36;12.60;56.70
1506;DHT22;744;51.436;7.356;2023-04-01T04:24:03;12.70;56.80
1506;DHT22;744;51.436;7.356;2023-04-01T04:26:30;12.80;57.00
1506;DHT22;744;51.436;7.356;2023-04-01T04:28:57;12.60;56.70
1506;DHT22;744;51.436;7.356;2023-04-01T04:31:24;12.70;56.80
1506;DHT22;744;51.436;7.356;2023-04-01T04:33:52;12.70;56.80
1506;DHT22;744;51.436;7.356;2023-04-01T04:36:19;12.70;57.00
1506;DHT22;744;51.436;7.356;2023-04-01T04:38:47;12.70;57.00
1506;DHT22;744;51.436;7.356;2023-04-01T04:41:16;12.50;57.10
1506;DHT22;744;51.436;7.356;2023-04-01T04:43:53;12.30;57.50
1506;DHT22;744;51.436;7.356;2023-04-01T04:46:21;12.60;58.10
1506;DHT22;744;51.436;7.356;2023-04-01T04:48:47;12.60;57.70
1506;DHT22;744;51.436;7.356;2023-04-01T04:51:16;12.50;57.30
1506;DHT22;744;51.436;7.356;2023-04-01T04:53:44;12.40;57.10
1506;DHT22;744;51.436;7.356;2023-04-01T04:56:11;12.70;57.40
1506;DHT22;744;51.436;7.356;2023-04-01T04:58:40;12.50;57.40
1506;DHT22;744;51.436;7.356;2023-04-01T05:01:09;12.40;57.20
1506;DHT22;744;51.436;7.356;2023-04-01T05:03:37;12.40;57.20
1506;DHT22;744;51.436;7.356;2023-04-01T05:06:04;12.50;57.20
1506;DHT22;744;51.436;7.356;2023-04-01T05:08:32;12.60;57.20
1506;DHT22;744;51.436;7.356;2023-04-01T05:11:00;12.70;57.20
1506;DHT22;744;51.436;7.356;2023-04-01T05:13:28;12.60;57.10
1506;DHT22;744;51.436;7.356;2023-04-01T05:15:55;12.60;57.20
1506;DHT22;744;51.436;7.356;2023-04-01T05:18:22;12.70;57.20
1506;DHT22;744;51.436;7.356;2023-04-01T05:20:53;12.60;57.10
1506;DHT22;744;51.436;7.356;2023-04-01T05:23:21;12.60;57.10
1506;DHT22;744;51.436;7.356;2023-04-01T05:25:49;12.70;57.00
1506;DHT22;744;51.436;7.356;2023-04-01T05:28:17;12.90;57.10
1506;DHT22;744;51.436;7.356;2023-04-01T05:30:44;12.70;57.20
1506;DHT22;744;51.436;7.356;2023-04-01T05:33:12;12.80;57.30
1506;DHT22;744;51.436;7.356;2023-04-01T05:35:40;12.90;57.10
1506;DHT22;744;51.436;7.356;2023-04-01T05:38:07;12.80;56.90
1506;DHT22;744;51.436;7.356;2023-04-01T05:40:34;13.10;57.20
1506;DHT22;744;51.436;7.356;2023-04-01T05:43:01;12.90;57.20
1506;DHT22;744;51.436;7.356;2023-04-01T05:45:28;12.70;57.20
1506;DHT22;744;51.436;7.356;2023-04-01T05:47:54;12.50;57.20
1506;DHT22;744;51.436;7.356;2023-04-01T05:50:21;12.70;57.50
1506;DHT22;744;51.436;7.356;2023-04-01T05:52:48;12.90;57.60
1506;DHT22;744;51.436;7.356;2023-04-01T05:55:16;12.90;57.30
1506;DHT22;744;51.436;7.356;2023-04-01T05:57:45;12.90;57.20
1506;DHT22;744;51.436;7.356;2023-04-01T06:00:12;12.90;57.30
1506;DHT22;744;51.436;7.356;2023-04-01T06:02:39;12.80;57.20
1506;DHT22;744;51.436;7.356;2023-04-01T06:05:20;12.90;57.30
1506;DHT22;744;51.436;7.356;2023-04-01T06:07:47;13.00;57.20
1506;DHT22;744;51.436;7.356;2023-04-01T06:10:16;12.90;57.00
1506;DHT22;744;51.436;7.356;2023-04-01T06:12:56;13.10;57.40
1506;DHT22;744;51.436;7.356;2023-04-01T06:15:53;13.10;57.60
1506;DHT22;744;51.436;7.356;2023-04-01T06:24:07;13.10;57.50
1506;DHT22;744;51.436;7.356;2023-04-01T06:32:28;12.80;57.30
1506;DHT22;744;51.436;7.356;2023-04-01T06:40:39;12.70;57.70
1506;DHT22;744;51.436;7.356;2023-04-01T06:43:40;12.90;57.90
1506;DHT22;744;51.436;7.356;2023-04-01T06:49:02;12.80;58.10
1506;DHT22;744;51.436;7.356;2023-04-01T06:54:14;12.50;58.00
1506;DHT22;744;51.436;7.356;2023-04-01T06:56:44;12.60;58.10
1506;DHT22;744;51.436;7.356;2023-04-01T06:59:17;12.50;58.00
1506;DHT22;744;51.436;7.356;2023-04-01T07:01:50;12.60;58.10
1506;DHT22;744;51.436;7.356;2023-04-01T07:04:29;12.70;58.20
1506;DHT22;744;51.436;7.356;2023-04-01T07:07:01;12.80;58.20
1506;DHT22;744;51.436;7.356;2023-04-01T07:09:35;12.90;58.20
1506;DHT22;744;51.436;7.356;2023-04-01T07:12:13;13.00;58.40
1506;DHT22;744;51.436;7.356;2023-04-01T07:14:43;12.70;58.10
1506;DHT22;744;51.436;7.356;2023-04-01T07:17:36;12.90;58.00
1506;DHT22;744;51.436;7.356;2023-04-01T07:20:16;13.00;57.70
1506;DHT22;744;51.436;7.356;2023-04-01T07:22:45;13.10;57.70
1506;DHT22;744;51.436;7.356;2023-04-01T07:25:35;13.10;57.60
1506;DHT22;744;51.436;7.356;2023-04-01T07:28:04;13.20;57.80
1506;DHT22;744;51.436;7.356;2023-04-01T07:30:54;12.90;58.10
1506;DHT22;744;51.436;7.356;2023-04-01T07:33:50;12.90;58.10
1506;DHT22;744;51.436;7.356;2023-04-01T07:41:49;12.80;58.20
1506;DHT22;744;51.436;7.356;2023-04-01T07:58:47;13.10;58.20
1506;DHT22;744;51.436;7.356;2023-04-01T08:07:25;12.90;58.30
1506;DHT22;744;51.436;7.356;2023-04-01T08:10:19;12.90;58.30
1506;DHT22;744;51.436;7.356;2023-04-01T08:13:26;12.90;58.30
1506;DHT22;744;51.436;7.356;2023-04-01T08:18:42;13.30;58.70
1506;DHT22;744;51.436;7.356;2023-04-01T08:21:21;13.20;58.60
1506;DHT22;744;51.436;7.356;2023-04-01T08:23:51;12.90;58.30
1506;DHT22;744;51.436;7.356;2023-04-01T08:26:23;12.90;58.30
1506;DHT22;744;51.436;7.356;2023-04-01T08:29:09;13.10;58.60
1506;DHT22;744;51.436;7.356;2023-04-01T08:32:08;13.10;58.60
1506;DHT22;744;51.436;7.356;2023-04-01T08:34:39;13.10;58.50
1506;DHT22;744;51.436;7.356;2023-04-01T08:37:25;13.20;58.60
1506;DHT22;744;51.436;7.356;2023-04-01T08:43:18;13.10;58.00
1506;DHT22;744;51.436;7.356;2023-04-01T08:57:08;13.20;57.80
1506;DHT22;744;51.436;7.356;2023-04-01T09:02:50;13.00;57.70
1506;DHT22;744;51.436;7.356;2023-04-01T09:05:37;13.30;58.30
1506;DHT22;744;51.436;7.356;2023-04-01T09:08:43;13.10;58.10
1506;DHT22;744;51.436;7.356;2023-04-01T09:14:43;13.10;58.40
1506;DHT22;744;51.436;7.356;2023-04-01T09:17:43;13.00;58.10
1506;DHT22;744;51.436;7.356;2023-04-01T09:37:18;13.10;58.50
1506;DHT22;744;51.436;7.356;2023-04-01T09:40:18;13.00;58.40
1506;DHT22;744;51.436;7.356;2023-04-01T09:45:48;13.00;58.40
1506;DHT22;744;51.436;7.356;2023-04-01T09:48:24;13.00;58.40
1506;DHT22;744;51.436;7.356;2023-04-01T10:05:27;13.10;58.60
1506;DHT22;744;51.436;7.356;2023-04-01T10:18:01;13.40;58.80
1506;DHT22;744;51.436;7.356;2023-04-01T10:26:35;13.30;58.70
1506;DHT22;744;51.436;7.356;2023-04-01T10:29:21;13.10;58.50
1506;DHT22;744;51.436;7.356;2023-04-01T10:40:49;13.20;58.60
1506;DHT22;744;51.436;7.356;2023-04-01T10:49:10;13.40;58.80
1506;DHT22;744;51.436;7.356;2023-04-01T10:51:58;13.70;59.10
1506;DHT22;744;51.436;7.356;2023-04-01T11:06:13;13.70;59.10
1506;DHT22;744;51.436;7.356;2023-04-01T11:15:38;13.30;58.70
1506;DHT22;744;51.436;7.356;2023-04-01T11:23:50;13.60;58.90
1506;DHT22;744;51.436;7.356;2023-04-01T11:26:55;13.70;59.00
1506;DHT22;744;51.436;7.356;2023-04-01T11:32:42;13.50;58.90
1506;DHT22;744;51.436;7.356;2023-04-01T11:35:38;13.80;58.60
1506;DHT22;744;51.436;7.356;2023-04-01T11:41:13;13.70;58.40
1506;DHT22;744;51.436;7.356;2023-04-01T11:44:18;13.60;58.10
1506;DHT22;744;51.436;7.356;2023-04-01T12:12:37;13.60;58.20
1506;DHT22;744;51.436;7.356;2023-04-01T12:15:35;13.60;58.50
1506;DHT22;744;51.436;7.356;2023-04-01T12:44:19;13.90;59.10
1506;DHT22;744;51.436;7.356;2023-04-01T12:49:56;13.60;58.90
1506;DHT22;744;51.436;7.356;2023-04-01T12:52:52;13.50;58.90
1506;DHT22;744;51.436;7.356;2023-04-01T12:55:42;13.70;59.10
1506;DHT22;744;51.436;7.356;2023-04-01T13:06:31;13.80;59.10
1506;DHT22;744;51.436;7.356;2023-04-01T13:15:09;13.70;59.00
1506;DHT22;744;51.436;7.356;2023-04-01T13:26:13;13.70;59.10
1506;DHT22;744;51.436;7.356;2023-04-01T13:28:54;13.80;59.10
1506;DHT22;744;51.436;7.356;2023-04-01T13:37:36;13.70;59.00
1506;DHT22;744;51.436;7.356;2023-04-01T13:43:55;13.60;59.00
1506;DHT22;744;51.436;7.356;2023-04-01T13:47:00;13.60;58.90
1506;DHT22;744;51.436;7.356;2023-04-01T13:52:29;13.80;59.10
1506;DHT22;744;51.436;7.356;2023-04-01T14:06:53;14.10;58.50
1506;DHT22;744;51.436;7.356;2023-04-01T14:13:07;13.80;58.40
1506;DHT22;744;51.436;7.356;2023-04-01T14:16:03;13.80;58.30
1506;DHT22;744;51.436;7.356;2023-04-01T14:18:53;13.90;58.50
1506;DHT22;744;51.436;7.356;2023-04-01T14:33:05;13.40;58.70
1506;DHT22;744;51.436;7.356;2023-04-01T14:56:50;13.50;58.50
1506;DHT22;744;51.436;7.356;2023-04-01T15:05:15;13.80;58.30
1506;DHT22;744;51.436;7.356;2023-04-01T15:08:05;13.80;58.10
1506;DHT22;744;51.436;7.356;2023-04-01T15:13:24;13.80;58.60
1506;DHT22;744;51.436;7.356;2023-04-01T15:16:14;13.80;58.30
1506;DHT22;744;51.436;7.356;2023-04-01T15:25:27;14.00;58.20
1506;DHT22;744;51.436;7.356;2023-04-01T15:40:15;13.90;58.10
1506;DHT22;744;51.436;7.356;2023-04-01T16:00:13;13.70;59.00
1506;DHT22;744;51.436;7.356;2023-04-01T16:05:34;13.80;58.70
1506;DHT22;744;51.436;7.356;2023-04-01T16:08:24;13.80;58.70
1506;DHT22;744;51.436;7.356;2023-04-01T16:19:12;13.90;58.60
1506;DHT22;744;51.436;7.356;2023-04-01T16:22:33;13.80;58.60
1506;DHT22;744;51.436;7.356;2023-04-01T16:26:22;14.00;58.60
1506;DHT22;744;51.436;7.356;2023-04-01T16:28:34;13.70;58.30
1506;DHT22;744;51.436;7.356;2023-04-01T16:31:23;13.90;58.60
1506;DHT22;744;51.436;7.356;2023-04-01T16:34:09;14.00;58.70
1506;DHT22;744;51.436;7.356;2023-04-01T16:36:53;13.90;58.50
1506;DHT22;744;51.436;7.356;2023-04-01T16:45:02;13.40;58.60
1506;DHT22;744;51.436;7.356;2023-04-01T16:47:40;13.50;58.90
1506;DHT22;744;51.436;7.356;2023-04-01T16:50:25;13.30;58.70
1506;DHT22;744;51.436;7.356;2023-04-01T16:56:04;13.50;58.90
1506;DHT22;744;51.436;7.356;2023-04-01T16:58:39;13.50;58.90
1506;DHT22;744;51.436;7.356;2023-04-01T17:01:13;13.50;58.90
1506;DHT22;744;51.436;7.356;2023-04-01T17:03:45;13.50;58.90
1506;DHT22;744;51.436;7.356;2023-04-01T17:08:55;13.50;58.90
1506;DHT22;744;51.436;7.356;2023-04-01T17:11:29;13.60;58.90
1506;DHT22;744;51.436;7.356;2023-04-01T17:15:04;13.40;58.80
1506;DHT22;744;51.436;7.356;2023-04-01T17:19:56;13.60;58.60
1506;DHT22;744;51.436;7.356;2023-04-01T17:47:28;13.70;58.60
1506;DHT22;744;51.436;7.356;2023-04-01T17:53:13;13.70;58.20
1506;DHT22;744;51.436;7.356;2023-04-01T17:55:49;13.50;58.50
1506;DHT22;744;51.436;7.356;2023-04-01T18:02:06;13.40;58.30
1506;DHT22;744;51.436;7.356;2023-04-01T18:07:01;13.50;58.90
1506;DHT22;744;51.436;7.356;2023-04-01T18:23:41;13.50;58.90
1506;DHT22;744;51.436;7.356;2023-04-01T18:26:29;13.40;58.80
1506;DHT22;744;51.436;7.356;2023-04-01T18:31:48;13.50;58.90
1506;DHT22;744;51.436;7.356;2023-04-01T18:34:44;13.70;59.00
1506;DHT22;744;51.436;7.356;2023-04-01T18:43:12;13.50;58.30
1506;DHT22;744;51.436;7.356;2023-04-01T18:45:54;13.70;58.70
1506;DHT22;744;51.436;7.356;2023-04-01T18:53:39;13.70;58.30
1506;DHT22;744;51.436;7.356;2023-04-01T18:56:12;13.60;58.10
1506;DHT22;744;51.436;7.356;2023-04-01T18:58:52;13.50;58.20
1506;DHT22;744;51.436;7.356;2023-04-01T19:07:53;13.90;58.10
1506;DHT22;744;51.436;7.356;2023-04-01T19:21:44;13.70;58.00
1506;DHT22;744;51.436;7.356;2023-04-01T19:36:13;13.90;58.20
1506;DHT22;744;51.436;7.356;2023-04-01T19:42:50;13.60;57.80
1506;DHT22;744;51.436;7.356;2023-04-01T19:53:21;13.80;57.90
1506;DHT22;744;51.436;7.356;2023-04-01T19:58:50;13.60;57.60
1506;DHT22;744;51.436;7.356;2023-04-01T20:04:51;13.70;57.80
1506;DHT22;744;51.436;7.356;2023-04-01T20:07:41;13.80;57.70
1506;DHT22;744;51.436;7.356;2023-04-01T20:13:25;13.70;57.60
1506;DHT22;744;51.436;7.356;2023-04-01T20:16:06;13.70;58.10
1506;DHT22;744;51.436;7.356;2023-04-01T20:18:54;13.40;58.30
1506;DHT22;744;51.436;7.356;2023-04-01T20:21:46;13.60;58.70
1506;DHT22;744;51.436;7.356;2023-04-01T20:26:48;13.40;58.70
1506;DHT22;744;51.436;7.356;2023-04-01T20:32:45;13.40;58.80
1506;DHT22;744;51.436;7.356;2023-04-01T20:38:04;13.30;58.70
1506;DHT22;744;51.436;7.356;2023-04-01T20:40:37;13.20;58.60
1506;DHT22;744;51.436;7.356;2023-04-01T20:43:30;13.10;58.50
1506;DHT22;744;51.436;7.356;2023-04-01T20:46:20;12.90;58.30
1506;DHT22;744;51.436;7.356;2023-04-01T20:49:02;13.10;58.50
1506;DHT22;744;51.436;7.356;2023-04-01T20:51:46;13.30;58.70
1506;DHT22;744;51.436;7.356;2023-04-01T20:57:35;13.20;58.60
1506;DHT22;744;51.436;7.356;2023-04-01T21:15:21;13.10;58.50
1506;DHT22;744;51.436;7.356;2023-04-01T21:37:04;12.60;58.10
1506;DHT22;744;51.436;7.356;2023-04-01T21:42:43;12.70;58.10
1506;DHT22;744;51.436;7.356;2023-04-01T21:45:37;12.60;58.10
1506;DHT22;744;51.436;7.356;2023-04-01T21:48:31;12.70;58.00
1506;DHT22;744;51.436;7.356;2023-04-01T21:54:28;12.70;57.90
1506;DHT22;744;51.436;7.356;2023-04-01T21:57:15;12.50;57.60
1506;DHT22;744;51.436;7.356;2023-04-01T22:00:20;12.60;57.60
1506;DHT22;744;51.436;7.356;2023-04-01T22:11:25;12.10;57.60
1506;DHT22;744;51.436;7.356;2023-04-01T22:14:02;12.50;57.60
1506;DHT22;744;51.436;7.356;2023-04-01T22:16:45;12.10;56.80
1506;DHT22;744;51.436;7.356;2023-04-01T22:19:26;12.30;56.70
1506;DHT22;744;51.436;7.356;2023-04-01T22:22:08;12.20;56.70
1506;DHT22;744;51.436;7.356;2023-04-01T22:30:27;12.10;56.40
1506;DHT22;744;51.436;7.356;2023-04-01T22:39:22;12.10;56.50
1506;DHT22;744;51.436;7.356;2023-04-01T22:42:05;12.00;56.40
1506;DHT22;744;51.436;7.356;2023-04-01T22:47:37;12.00;56.00
1506;DHT22;744;51.436;7.356;2023-04-01T22:50:10;11.80;55.90
1506;DHT22;744;51.436;7.356;2023-04-01T22:52:42;11.80;56.20
1506;DHT22;744;51.436;7.356;2023-04-01T22:55:21;11.90;56.00
1506;DHT22;744;51.436;7.356;2023-04-01T22:57:54;11.90;56.10
1506;DHT22;744;51.436;7.356;2023-04-01T23:00:43;11.70;55.90
1506;DHT22;744;51.436;7.356;2023-04-01T23:03:32;11.70;55.80
1506;DHT22;744;51.436;7.356;2023-04-01T23:06:03;11.80;55.90
1506;DHT22;744;51.436;7.356;2023-04-01T23:09:00;11.70;55.60
1506;DHT22;744;51.436;7.356;2023-04-01T23:11:37;11.70;55.60
1506;DHT22;744;51.436;7.356;2023-04-01T23:16:51;11.60;55.70
1506;DHT22;744;51.436;7.356;2023-04-01T23:21:52;11.50;55.60
1506;DHT22;744;51.436;7.356;2023-04-01T23:24:46;11.50;55.50
1506;DHT22;744;51.436;7.356;2023-04-01T23:27:27;11.40;55.40
1506;DHT22;744;51.436;7.356;2023-04-01T23:29:55;11.20;55.20
1506;DHT22;744;51.436;7.356;2023-04-01T23:32:23;11.10;55.40
1506;DHT22;744;51.436;7.356;2023-04-01T23:34:56;11.20;55.70
1506;DHT22;744;51.436;7.356;2023-04-01T23:37:24;11.10;55.50
1506;DHT22;744;51.436;7.356;2023-04-01T23:39:56;11.30;55.50
1506;DHT22;744;51.436;7.356;2023-04-01T23:42:30;11.10;55.40
1506;DHT22;744;51.436;7.356;2023-04-01T23:45:04;11.00;55.40
1506;DHT22;744;51.436;7.356;2023-04-01T23:47:37;11.20;55.80
1506;DHT22;744;51.436;7.356;2023-04-01T23:50:12;11.00;55.40
1506;DHT22;744;51.436;7.356;2023-04-01T23:53:00;11.30;55.50
1506;DHT22;744;51.436;7.356;2023-04-01T23:55:31;11.10;55.20
